AAL2291 KMCO-KCLT
Flight info
| Callsign | AAL2291 |
|---|---|
| Flight time | 1h 13m |
| Altitude | 31000 |
| Route | FATHE4 VIYAP CHECR STOCR4 |
| Aircraft | A321/M-SDE3FGHIRWY/LB1 |
Departure
| Time | 2026-04-21 19:53 |
|---|---|
| Airport | Orlando International Airport (KMCO) |
Arrival
| Time | 2026-04-21 21:07 |
|---|---|
| Airport | Charlotte Douglas International Airport (KCLT) |
| Time | Latitude | Longitude | Altitude | Speed | Heading |
|---|---|---|---|---|---|
| 2026-04-21 19:28 | 28.42790 | -81.31586 | 102 ft | 0 kts | 45° |
| 2026-04-21 19:44 | 28.42776 | -81.31601 | 101 ft | 4 kts | 47° |
| 2026-04-21 19:44 | 28.42758 | -81.31625 | 100 ft | 4 kts | 50° |
| 2026-04-21 19:44 | 28.42740 | -81.31647 | 100 ft | 4 kts | 36° |
| 2026-04-21 19:44 | 28.42721 | -81.31656 | 99 ft | 1 kts | 348° |
| 2026-04-21 19:45 | 28.42716 | -81.31654 | 100 ft | 0 kts | 348° |
| 2026-04-21 19:45 | 28.42717 | -81.31654 | 100 ft | 0 kts | 348° |
| 2026-04-21 19:48 | 28.42719 | -81.31659 | 100 ft | 2 kts | 309° |
| 2026-04-21 19:48 | 28.42711 | -81.31710 | 103 ft | 13 kts | 264° |
| 2026-04-21 19:49 | 28.42675 | -81.31829 | 107 ft | 17 kts | 197° |
| 2026-04-21 19:49 | 28.42569 | -81.31834 | 107 ft | 15 kts | 180° |
| 2026-04-21 19:49 | 28.42459 | -81.31832 | 106 ft | 19 kts | 179° |
| 2026-04-21 19:49 | 28.42318 | -81.31830 | 107 ft | 20 kts | 181° |
| 2026-04-21 19:50 | 28.42229 | -81.31842 | 108 ft | 19 kts | 193° |
| 2026-04-21 19:50 | 28.42051 | -81.31878 | 104 ft | 20 kts | 179° |
| 2026-04-21 19:50 | 28.41907 | -81.31877 | 103 ft | 21 kts | 179° |
| 2026-04-21 19:50 | 28.41767 | -81.31874 | 103 ft | 20 kts | 179° |
| 2026-04-21 19:51 | 28.41623 | -81.31875 | 100 ft | 21 kts | 181° |
| 2026-04-21 19:51 | 28.41543 | -81.31951 | 99 ft | 16 kts | 266° |
| 2026-04-21 19:51 | 28.41543 | -81.32066 | 101 ft | 13 kts | 270° |
| 2026-04-21 19:51 | 28.41544 | -81.32156 | 102 ft | 10 kts | 272° |
| 2026-04-21 19:52 | 28.41585 | -81.32197 | 102 ft | 6 kts | 358° |
| 2026-04-21 19:52 | 28.41588 | -81.32197 | 102 ft | 0 kts | 359° |
| 2026-04-21 19:52 | 28.41595 | -81.32197 | 102 ft | 6 kts | 360° |
| 2026-04-21 19:52 | 28.41879 | -81.32195 | 102 ft | 77 kts | 0° |
| 2026-04-21 19:53 | 28.42621 | -81.32203 | 108 ft | 134 kts | 360° |
| 2026-04-21 19:53 | 28.43706 | -81.32224 | 173 ft | 171 kts | 359° |
| 2026-04-21 19:53 | 28.44886 | -81.32253 | 783 ft | 169 kts | 7° |
| 2026-04-21 19:53 | 28.46061 | -81.32228 | 1414 ft | 170 kts | 8° |
| 2026-04-21 19:54 | 28.47254 | -81.32230 | 2011 ft | 177 kts | 7° |
| 2026-04-21 19:54 | 28.48559 | -81.32234 | 2343 ft | 197 kts | 6° |
| 2026-04-21 19:54 | 28.50006 | -81.32238 | 2504 ft | 220 kts | 5° |
| 2026-04-21 19:54 | 28.51608 | -81.32242 | 2858 ft | 238 kts | 5° |
| 2026-04-21 19:55 | 28.53268 | -81.32265 | 3688 ft | 239 kts | 3° |
| 2026-04-21 19:55 | 28.54941 | -81.32284 | 4516 ft | 242 kts | 6° |
| 2026-04-21 19:55 | 28.56685 | -81.32188 | 5038 ft | 259 kts | 8° |
| 2026-04-21 19:55 | 28.58515 | -81.32031 | 5741 ft | 267 kts | 8° |
| 2026-04-21 19:56 | 28.60370 | -81.31857 | 6570 ft | 269 kts | 8° |
| 2026-04-21 19:56 | 28.62248 | -81.31679 | 6888 ft | 270 kts | 7° |
| 2026-04-21 19:56 | 28.64131 | -81.31468 | 7460 ft | 272 kts | 9° |
| 2026-04-21 19:56 | 28.65985 | -81.31227 | 8304 ft | 273 kts | 9° |
| 2026-04-21 19:57 | 28.67887 | -81.30966 | 9032 ft | 277 kts | 8° |
| 2026-04-21 19:57 | 28.69818 | -81.30703 | 9809 ft | 280 kts | 7° |
| 2026-04-21 19:57 | 28.71781 | -81.30439 | 10343 ft | 293 kts | 7° |
| 2026-04-21 19:57 | 28.73884 | -81.30160 | 10501 ft | 316 kts | 6° |
| 2026-04-21 19:58 | 28.76138 | -81.29868 | 10663 ft | 336 kts | 6° |
| 2026-04-21 19:58 | 28.78493 | -81.29564 | 11157 ft | 343 kts | 6° |
| 2026-04-21 19:58 | 28.80875 | -81.29255 | 11783 ft | 347 kts | 6° |
| 2026-04-21 19:58 | 28.83284 | -81.28947 | 12437 ft | 349 kts | 4° |
| 2026-04-21 19:59 | 28.85717 | -81.28958 | 13072 ft | 352 kts | 355° |
| 2026-04-21 19:59 | 28.88171 | -81.29164 | 13722 ft | 354 kts | 355° |
| 2026-04-21 19:59 | 28.90639 | -81.29379 | 14342 ft | 357 kts | 355° |
| 2026-04-21 19:59 | 28.93129 | -81.29598 | 14887 ft | 361 kts | 354° |
| 2026-04-21 20:00 | 28.95644 | -81.29817 | 15434 ft | 364 kts | 354° |
| 2026-04-21 20:00 | 28.98177 | -81.30039 | 15973 ft | 367 kts | 354° |
| 2026-04-21 20:00 | 29.00736 | -81.30271 | 16518 ft | 370 kts | 353° |
| 2026-04-21 20:00 | 29.03278 | -81.30536 | 17022 ft | 373 kts | 352° |
| 2026-04-21 20:01 | 29.05905 | -81.30834 | 17546 ft | 376 kts | 352° |
| 2026-04-21 20:01 | 29.08482 | -81.31135 | 18033 ft | 379 kts | 352° |
| 2026-04-21 20:01 | 29.11121 | -81.31441 | 18518 ft | 382 kts | 352° |
| 2026-04-21 20:01 | 29.13781 | -81.31682 | 18928 ft | 385 kts | 354° |
| 2026-04-21 20:02 | 29.15598 | -81.31805 | 19202 ft | 387 kts | 354° |
| 2026-04-21 20:02 | 29.19168 | -81.31994 | 19736 ft | 389 kts | 354° |
| 2026-04-21 20:02 | 29.21875 | -81.32125 | 20132 ft | 391 kts | 354° |
| 2026-04-21 20:02 | 29.24601 | -81.32261 | 20527 ft | 393 kts | 354° |
| 2026-04-21 20:03 | 29.27338 | -81.32404 | 20929 ft | 394 kts | 354° |
| 2026-04-21 20:03 | 29.30089 | -81.32558 | 21300 ft | 397 kts | 354° |
| 2026-04-21 20:03 | 29.32847 | -81.32720 | 21702 ft | 399 kts | 353° |
| 2026-04-21 20:03 | 29.35625 | -81.32891 | 22113 ft | 401 kts | 353° |
| 2026-04-21 20:04 | 29.38415 | -81.33066 | 22536 ft | 402 kts | 353° |
| 2026-04-21 20:04 | 29.41218 | -81.33242 | 22941 ft | 404 kts | 353° |
| 2026-04-21 20:04 | 29.44035 | -81.33417 | 23353 ft | 406 kts | 353° |
| 2026-04-21 20:04 | 29.46859 | -81.33591 | 23760 ft | 408 kts | 353° |
| 2026-04-21 20:05 | 29.49707 | -81.33764 | 24123 ft | 410 kts | 353° |
| 2026-04-21 20:05 | 29.52557 | -81.33931 | 24479 ft | 411 kts | 353° |
| 2026-04-21 20:05 | 29.55386 | -81.34098 | 24845 ft | 412 kts | 353° |
| 2026-04-21 20:05 | 29.58259 | -81.34272 | 25181 ft | 414 kts | 353° |
| 2026-04-21 20:06 | 29.61134 | -81.34446 | 25522 ft | 415 kts | 353° |
| 2026-04-21 20:06 | 29.64031 | -81.34620 | 25870 ft | 416 kts | 353° |
| 2026-04-21 20:06 | 29.66922 | -81.34788 | 26219 ft | 417 kts | 353° |
| 2026-04-21 20:06 | 29.69827 | -81.34955 | 26558 ft | 418 kts | 353° |
| 2026-04-21 20:07 | 29.72741 | -81.35121 | 26896 ft | 420 kts | 353° |
| 2026-04-21 20:07 | 29.75663 | -81.35286 | 27223 ft | 421 kts | 353° |
| 2026-04-21 20:07 | 29.77597 | -81.35397 | 27442 ft | 422 kts | 353° |
| 2026-04-21 20:07 | 29.81534 | -81.35624 | 27881 ft | 423 kts | 353° |
| 2026-04-21 20:08 | 29.84482 | -81.35792 | 28204 ft | 425 kts | 353° |
| 2026-04-21 20:08 | 29.87437 | -81.35961 | 28467 ft | 427 kts | 353° |
| 2026-04-21 20:08 | 29.90414 | -81.36131 | 28750 ft | 429 kts | 353° |
| 2026-04-21 20:08 | 29.93400 | -81.36303 | 29024 ft | 430 kts | 353° |
| 2026-04-21 20:09 | 29.96396 | -81.36476 | 29282 ft | 431 kts | 353° |
| 2026-04-21 20:09 | 29.99400 | -81.36648 | 29528 ft | 433 kts | 353° |
| 2026-04-21 20:09 | 30.02403 | -81.36820 | 29753 ft | 434 kts | 353° |
| 2026-04-21 20:09 | 30.05420 | -81.36995 | 29974 ft | 434 kts | 352° |
| 2026-04-21 20:10 | 30.08399 | -81.37167 | 30263 ft | 433 kts | 352° |
| 2026-04-21 20:10 | 30.11442 | -81.37344 | 30550 ft | 432 kts | 352° |
| 2026-04-21 20:10 | 30.14444 | -81.37517 | 30780 ft | 432 kts | 352° |
| 2026-04-21 20:10 | 30.17416 | -81.37688 | 30982 ft | 433 kts | 352° |
| 2026-04-21 20:11 | 30.20415 | -81.37862 | 31222 ft | 432 kts | 352° |
| 2026-04-21 20:11 | 30.26331 | -81.38204 | 31320 ft | 417 kts | 352° |
| 2026-04-21 20:12 | 30.32087 | -81.38535 | 31320 ft | 413 kts | 352° |
| 2026-04-21 20:12 | 30.36857 | -81.38811 | 31321 ft | 412 kts | 352° |
| 2026-04-21 20:13 | 30.43556 | -81.39207 | 31321 ft | 412 kts | 352° |
| 2026-04-21 20:13 | 30.49280 | -81.39530 | 31320 ft | 412 kts | 352° |
| 2026-04-21 20:14 | 30.55011 | -81.39827 | 31328 ft | 412 kts | 352° |
| 2026-04-21 20:14 | 30.57895 | -81.39975 | 31444 ft | 416 kts | 352° |
| 2026-04-21 20:14 | 30.60793 | -81.40126 | 31724 ft | 417 kts | 352° |
| 2026-04-21 20:14 | 30.63684 | -81.40278 | 32075 ft | 415 kts | 352° |
| 2026-04-21 20:15 | 30.66555 | -81.40429 | 32453 ft | 413 kts | 352° |
| 2026-04-21 20:15 | 30.69415 | -81.40579 | 32848 ft | 410 kts | 352° |
| 2026-04-21 20:15 | 30.72258 | -81.40729 | 33219 ft | 408 kts | 352° |
| 2026-04-21 20:15 | 30.75088 | -81.40880 | 33320 ft | 406 kts | 352° |
| 2026-04-21 20:16 | 30.77903 | -81.41031 | 33322 ft | 404 kts | 352° |
| 2026-04-21 20:16 | 30.83474 | -81.41330 | 33317 ft | 403 kts | 352° |
| 2026-04-21 20:17 | 30.89118 | -81.41633 | 33313 ft | 403 kts | 352° |
| 2026-04-21 20:17 | 30.94683 | -81.41925 | 33315 ft | 403 kts | 352° |
| 2026-04-21 20:18 | 30.99379 | -81.42173 | 33325 ft | 403 kts | 352° |
| 2026-04-21 20:18 | 31.05892 | -81.42525 | 33322 ft | 403 kts | 352° |
| 2026-04-21 20:19 | 31.11501 | -81.42828 | 33319 ft | 403 kts | 352° |
| 2026-04-21 20:19 | 31.16163 | -81.43077 | 33317 ft | 403 kts | 352° |
| 2026-04-21 20:20 | 31.21764 | -81.43373 | 33325 ft | 403 kts | 352° |
| 2026-04-21 20:20 | 31.27397 | -81.42669 | 33334 ft | 418 kts | 10° |
| 2026-04-21 20:21 | 31.32932 | -81.40434 | 33321 ft | 421 kts | 12° |
| 2026-04-21 20:21 | 31.38464 | -81.38185 | 33312 ft | 421 kts | 12° |
| 2026-04-21 20:22 | 31.44008 | -81.35934 | 33303 ft | 422 kts | 12° |
| 2026-04-21 20:22 | 31.52319 | -81.32533 | 33306 ft | 422 kts | 12° |
| 2026-04-21 20:23 | 31.57876 | -81.30261 | 33294 ft | 423 kts | 12° |
| 2026-04-21 20:23 | 31.63434 | -81.27981 | 33303 ft | 424 kts | 12° |
| 2026-04-21 20:24 | 31.69012 | -81.25702 | 33294 ft | 425 kts | 12° |
| 2026-04-21 20:24 | 31.73596 | -81.23827 | 33292 ft | 425 kts | 12° |
| 2026-04-21 20:25 | 31.78899 | -81.21652 | 33306 ft | 426 kts | 12° |
| 2026-04-21 20:25 | 31.84507 | -81.19343 | 33297 ft | 427 kts | 12° |
| 2026-04-21 20:26 | 31.90125 | -81.17032 | 33290 ft | 428 kts | 12° |
| 2026-04-21 20:26 | 31.95750 | -81.14711 | 33290 ft | 429 kts | 13° |
| 2026-04-21 20:27 | 32.01376 | -81.12387 | 33294 ft | 429 kts | 13° |
| 2026-04-21 20:27 | 32.07016 | -81.10054 | 33292 ft | 430 kts | 13° |
| 2026-04-21 20:28 | 32.12658 | -81.07716 | 33315 ft | 430 kts | 13° |
| 2026-04-21 20:28 | 32.18314 | -81.05373 | 33311 ft | 431 kts | 13° |
| 2026-04-21 20:29 | 32.23935 | -81.03043 | 33313 ft | 431 kts | 13° |
| 2026-04-21 20:29 | 32.29601 | -81.00692 | 33312 ft | 432 kts | 13° |
| 2026-04-21 20:30 | 32.35268 | -80.98330 | 33328 ft | 432 kts | 13° |
| 2026-04-21 20:30 | 32.40944 | -80.95966 | 33326 ft | 432 kts | 13° |
| 2026-04-21 20:31 | 32.46615 | -80.93603 | 33329 ft | 433 kts | 13° |
| 2026-04-21 20:31 | 32.52295 | -80.91232 | 33329 ft | 433 kts | 13° |
| 2026-04-21 20:32 | 32.57980 | -80.88856 | 33363 ft | 433 kts | 13° |
| 2026-04-21 20:32 | 32.63666 | -80.86473 | 33349 ft | 433 kts | 13° |
| 2026-04-21 20:33 | 32.69353 | -80.84083 | 33341 ft | 433 kts | 13° |
| 2026-04-21 20:33 | 32.74876 | -80.81087 | 33340 ft | 441 kts | 22° |
| 2026-04-21 20:34 | 32.80273 | -80.77588 | 33342 ft | 441 kts | 22° |
| 2026-04-21 20:34 | 32.85625 | -80.74101 | 33356 ft | 442 kts | 22° |
| 2026-04-21 20:35 | 32.91016 | -80.70593 | 33352 ft | 442 kts | 22° |
| 2026-04-21 20:35 | 32.96421 | -80.67088 | 33347 ft | 442 kts | 22° |
| 2026-04-21 20:36 | 33.01817 | -80.63572 | 33345 ft | 442 kts | 22° |
| 2026-04-21 20:36 | 33.07209 | -80.60035 | 33328 ft | 443 kts | 22° |
| 2026-04-21 20:37 | 33.12608 | -80.56498 | 33331 ft | 443 kts | 22° |
| 2026-04-21 20:37 | 33.18011 | -80.52968 | 33348 ft | 443 kts | 22° |
| 2026-04-21 20:38 | 33.23401 | -80.49441 | 33346 ft | 442 kts | 22° |
| 2026-04-21 20:38 | 33.28789 | -80.45901 | 33343 ft | 442 kts | 22° |
| 2026-04-21 20:39 | 33.34166 | -80.42360 | 33354 ft | 441 kts | 22° |
| 2026-04-21 20:39 | 33.39544 | -80.38826 | 33354 ft | 441 kts | 22° |
| 2026-04-21 20:40 | 33.44919 | -80.35278 | 33358 ft | 441 kts | 22° |
| 2026-04-21 20:40 | 33.50293 | -80.31727 | 33327 ft | 441 kts | 22° |
| 2026-04-21 20:41 | 33.52943 | -80.29980 | 33034 ft | 440 kts | 22° |
| 2026-04-21 20:41 | 33.55610 | -80.28215 | 32453 ft | 436 kts | 22° |
| 2026-04-21 20:41 | 33.58255 | -80.26458 | 31864 ft | 433 kts | 22° |
| 2026-04-21 20:41 | 33.60887 | -80.24710 | 31241 ft | 431 kts | 22° |
| 2026-04-21 20:42 | 33.63504 | -80.22971 | 30629 ft | 429 kts | 22° |
| 2026-04-21 20:42 | 33.66102 | -80.21244 | 29933 ft | 427 kts | 22° |
| 2026-04-21 20:42 | 33.68689 | -80.19525 | 29370 ft | 422 kts | 22° |
| 2026-04-21 20:42 | 33.71245 | -80.17827 | 29113 ft | 422 kts | 22° |
| 2026-04-21 20:43 | 33.73820 | -80.16121 | 28783 ft | 423 kts | 22° |
| 2026-04-21 20:43 | 33.76382 | -80.14420 | 28237 ft | 418 kts | 22° |
| 2026-04-21 20:43 | 33.78907 | -80.12735 | 27718 ft | 413 kts | 22° |
| 2026-04-21 20:43 | 33.81397 | -80.11071 | 27205 ft | 408 kts | 22° |
| 2026-04-21 20:44 | 33.83867 | -80.09421 | 26700 ft | 404 kts | 22° |
| 2026-04-21 20:44 | 33.86315 | -80.07786 | 26192 ft | 399 kts | 22° |
| 2026-04-21 20:44 | 33.88728 | -80.06174 | 25696 ft | 396 kts | 22° |
| 2026-04-21 20:44 | 33.91123 | -80.04572 | 25199 ft | 392 kts | 22° |
| 2026-04-21 20:45 | 33.93495 | -80.02983 | 24705 ft | 388 kts | 22° |
| 2026-04-21 20:45 | 33.95855 | -80.01442 | 24223 ft | 382 kts | 18° |
| 2026-04-21 20:45 | 33.98323 | -80.00443 | 23719 ft | 369 kts | 6° |
| 2026-04-21 20:45 | 34.00836 | -80.00144 | 23241 ft | 359 kts | 354° |
| 2026-04-21 20:46 | 34.03285 | -80.00485 | 22874 ft | 352 kts | 344° |
| 2026-04-21 20:46 | 34.05591 | -80.01412 | 22507 ft | 348 kts | 333° |
| 2026-04-21 20:46 | 34.07445 | -80.02507 | 22204 ft | 346 kts | 332° |
| 2026-04-21 20:46 | 34.09569 | -80.03765 | 21831 ft | 344 kts | 332° |
| 2026-04-21 20:47 | 34.11715 | -80.05030 | 21454 ft | 342 kts | 332° |
| 2026-04-21 20:47 | 34.13849 | -80.06283 | 21096 ft | 341 kts | 333° |
| 2026-04-21 20:47 | 34.15976 | -80.07533 | 20735 ft | 339 kts | 333° |
| 2026-04-21 20:47 | 34.18094 | -80.08777 | 20376 ft | 338 kts | 333° |
| 2026-04-21 20:48 | 34.20205 | -80.10020 | 20008 ft | 337 kts | 333° |
| 2026-04-21 20:48 | 34.22301 | -80.11258 | 19654 ft | 335 kts | 333° |
| 2026-04-21 20:48 | 34.24390 | -80.12494 | 19300 ft | 334 kts | 333° |
| 2026-04-21 20:48 | 34.26474 | -80.13726 | 18946 ft | 333 kts | 333° |
| 2026-04-21 20:49 | 34.28551 | -80.14955 | 18583 ft | 331 kts | 333° |
| 2026-04-21 20:49 | 34.30628 | -80.16185 | 17896 ft | 333 kts | 333° |
| 2026-04-21 20:49 | 34.32687 | -80.17406 | 17486 ft | 329 kts | 333° |
| 2026-04-21 20:49 | 34.34740 | -80.18627 | 17156 ft | 329 kts | 332° |
| 2026-04-21 20:50 | 34.36794 | -80.19849 | 16801 ft | 328 kts | 332° |
| 2026-04-21 20:50 | 34.38837 | -80.21061 | 16454 ft | 327 kts | 333° |
| 2026-04-21 20:50 | 34.40875 | -80.22267 | 16105 ft | 326 kts | 333° |
| 2026-04-21 20:50 | 34.42913 | -80.23472 | 15760 ft | 325 kts | 333° |
| 2026-04-21 20:51 | 34.44942 | -80.24676 | 15425 ft | 324 kts | 333° |
| 2026-04-21 20:51 | 34.46965 | -80.25877 | 15093 ft | 323 kts | 333° |
| 2026-04-21 20:51 | 34.48985 | -80.27078 | 14749 ft | 322 kts | 333° |
| 2026-04-21 20:51 | 34.50995 | -80.28276 | 14409 ft | 322 kts | 333° |
| 2026-04-21 20:52 | 34.52994 | -80.29470 | 14061 ft | 321 kts | 333° |
| 2026-04-21 20:52 | 34.54993 | -80.30665 | 13703 ft | 319 kts | 333° |
| 2026-04-21 20:52 | 34.56961 | -80.31838 | 13373 ft | 311 kts | 333° |
| 2026-04-21 20:52 | 34.58879 | -80.32985 | 13035 ft | 306 kts | 333° |
| 2026-04-21 20:53 | 34.60736 | -80.34222 | 12723 ft | 303 kts | 325° |
| 2026-04-21 20:53 | 34.62371 | -80.35768 | 12544 ft | 291 kts | 322° |
| 2026-04-21 20:53 | 34.63924 | -80.37267 | 12274 ft | 283 kts | 322° |
| 2026-04-21 20:53 | 34.65459 | -80.38742 | 11865 ft | 280 kts | 322° |
| 2026-04-21 20:54 | 34.66958 | -80.40185 | 11534 ft | 276 kts | 322° |
| 2026-04-21 20:54 | 34.68478 | -80.41649 | 11232 ft | 275 kts | 322° |
| 2026-04-21 20:54 | 34.69951 | -80.43075 | 10946 ft | 274 kts | 322° |
| 2026-04-21 20:54 | 34.71433 | -80.44525 | 10648 ft | 273 kts | 322° |
| 2026-04-21 20:55 | 34.72907 | -80.45974 | 10371 ft | 272 kts | 322° |
| 2026-04-21 20:55 | 34.74377 | -80.47420 | 10067 ft | 271 kts | 322° |
| 2026-04-21 20:55 | 34.75843 | -80.48862 | 9770 ft | 271 kts | 322° |
| 2026-04-21 20:55 | 34.77307 | -80.50304 | 9484 ft | 270 kts | 322° |
| 2026-04-21 20:56 | 34.78763 | -80.51738 | 9202 ft | 270 kts | 322° |
| 2026-04-21 20:56 | 34.80223 | -80.53174 | 8917 ft | 269 kts | 322° |
| 2026-04-21 20:56 | 34.81677 | -80.54601 | 8621 ft | 269 kts | 322° |
| 2026-04-21 20:56 | 34.83134 | -80.56033 | 8338 ft | 269 kts | 322° |
| 2026-04-21 20:57 | 34.84589 | -80.57467 | 8023 ft | 269 kts | 322° |
| 2026-04-21 20:57 | 34.86028 | -80.58889 | 7735 ft | 263 kts | 322° |
| 2026-04-21 20:57 | 34.87418 | -80.60302 | 7441 ft | 257 kts | 316° |
| 2026-04-21 20:57 | 34.88426 | -80.62066 | 7160 ft | 253 kts | 294° |
| 2026-04-21 20:58 | 34.88808 | -80.64132 | 6918 ft | 250 kts | 273° |
| 2026-04-21 20:58 | 34.88572 | -80.66213 | 6631 ft | 248 kts | 259° |
| 2026-04-21 20:58 | 34.88194 | -80.68242 | 6350 ft | 244 kts | 259° |
| 2026-04-21 20:58 | 34.87827 | -80.70235 | 6096 ft | 238 kts | 260° |
| 2026-04-21 20:59 | 34.87493 | -80.72172 | 5987 ft | 231 kts | 263° |
| 2026-04-21 20:59 | 34.87294 | -80.74106 | 5999 ft | 230 kts | 268° |
| 2026-04-21 20:59 | 34.87179 | -80.76045 | 6000 ft | 229 kts | 269° |
| 2026-04-21 20:59 | 34.87079 | -80.77981 | 6001 ft | 229 kts | 269° |
| 2026-04-21 21:00 | 34.86972 | -80.79921 | 5991 ft | 229 kts | 269° |
| 2026-04-21 21:00 | 34.86873 | -80.81856 | 5995 ft | 228 kts | 275° |
| 2026-04-21 21:00 | 34.87325 | -80.83653 | 5997 ft | 222 kts | 308° |
| 2026-04-21 21:00 | 34.88382 | -80.85004 | 5806 ft | 220 kts | 320° |
| 2026-04-21 21:01 | 34.89549 | -80.86205 | 5471 ft | 219 kts | 322° |
| 2026-04-21 21:01 | 34.90733 | -80.87382 | 5180 ft | 219 kts | 321° |
| 2026-04-21 21:01 | 34.91898 | -80.88518 | 4888 ft | 217 kts | 322° |
| 2026-04-21 21:01 | 34.93086 | -80.89657 | 4566 ft | 218 kts | 322° |
| 2026-04-21 21:02 | 34.94302 | -80.90765 | 4230 ft | 219 kts | 330° |
| 2026-04-21 21:02 | 34.95742 | -80.91327 | 4002 ft | 220 kts | 354° |
| 2026-04-21 21:02 | 34.97294 | -80.91460 | 3977 ft | 227 kts | 355° |
| 2026-04-21 21:02 | 34.98870 | -80.91594 | 3976 ft | 228 kts | 355° |
| 2026-04-21 21:03 | 35.00453 | -80.91730 | 3978 ft | 228 kts | 355° |
| 2026-04-21 21:03 | 35.02042 | -80.91866 | 3979 ft | 228 kts | 355° |
| 2026-04-21 21:03 | 35.03622 | -80.92001 | 3914 ft | 225 kts | 355° |
| 2026-04-21 21:03 | 35.05152 | -80.92131 | 3669 ft | 218 kts | 355° |
| 2026-04-21 21:04 | 35.06659 | -80.92260 | 3396 ft | 215 kts | 356° |
| 2026-04-21 21:04 | 35.08150 | -80.92388 | 3111 ft | 213 kts | 356° |
| 2026-04-21 21:04 | 35.09613 | -80.92513 | 2834 ft | 209 kts | 356° |
| 2026-04-21 21:04 | 35.11039 | -80.92635 | 2561 ft | 201 kts | 356° |
| 2026-04-21 21:05 | 35.12406 | -80.92752 | 2298 ft | 192 kts | 355° |
| 2026-04-21 21:05 | 35.13705 | -80.92863 | 2048 ft | 183 kts | 356° |
| 2026-04-21 21:05 | 35.14944 | -80.92970 | 1819 ft | 173 kts | 356° |
| 2026-04-21 21:05 | 35.16092 | -80.93068 | 1560 ft | 158 kts | 355° |
| 2026-04-21 21:06 | 35.17163 | -80.93160 | 1338 ft | 151 kts | 354° |
| 2026-04-21 21:06 | 35.18204 | -80.93248 | 1160 ft | 148 kts | 354° |
| 2026-04-21 21:06 | 35.19232 | -80.93333 | 937 ft | 146 kts | 354° |
| 2026-04-21 21:06 | 35.20241 | -80.93417 | 754 ft | 145 kts | 353° |
| 2026-04-21 21:07 | 35.21125 | -80.93507 | 735 ft | 91 kts | 356° |
| 2026-04-21 21:07 | 35.21502 | -80.93534 | 735 ft | 27 kts | 356° |
| 2026-04-21 21:07 | 35.21574 | -80.93587 | 734 ft | 10 kts | 295° |
| 2026-04-21 21:07 | 35.21573 | -80.93672 | 733 ft | 10 kts | 281° |
| 2026-04-21 21:08 | 35.21613 | -80.93747 | 733 ft | 13 kts | 310° |
| 2026-04-21 21:08 | 35.21672 | -80.93835 | 733 ft | 13 kts | 310° |
| 2026-04-21 21:08 | 35.21738 | -80.93913 | 732 ft | 14 kts | 317° |
| 2026-04-21 21:08 | 35.21755 | -80.94009 | 732 ft | 13 kts | 240° |
| 2026-04-21 21:09 | 35.21700 | -80.94094 | 731 ft | 12 kts | 234° |
| 2026-04-21 21:09 | 35.21683 | -80.94172 | 732 ft | 6 kts | 294° |
| 2026-04-21 21:09 | 35.21719 | -80.94194 | 732 ft | 6 kts | 343° |
| 2026-04-21 21:09 | 35.21748 | -80.94204 | 732 ft | 1 kts | 344° |
| 2026-04-21 21:10 | 35.21750 | -80.94205 | 732 ft | 0 kts | 344° |